createdAt,value
2016-08-03T00:00:37.589Z,17.35
2016-08-03T00:01:36.906Z,17.22
2016-08-03T00:02:37.050Z,17.31
2016-08-03T00:03:37.657Z,17.34
2016-08-03T00:04:37.057Z,17.31
2016-08-03T00:05:37.003Z,17.37
2016-08-03T00:06:37.071Z,17.35
2016-08-03T00:07:37.751Z,17.32
2016-08-03T00:08:37.098Z,17.32
2016-08-03T00:09:36.382Z,17.27
2016-08-03T00:10:37.849Z,17.3
2016-08-03T00:11:37.151Z,17.28
2016-08-03T00:12:37.150Z,17.28
2016-08-03T00:14:37.186Z,17.24
2016-08-03T00:15:36.509Z,17.24
2016-08-03T00:16:37.228Z,17.34
2016-08-03T00:17:38.065Z,17.3
2016-08-03T00:18:37.352Z,17.27
2016-08-03T00:19:37.328Z,17.32
2016-08-03T00:20:37.391Z,17.28
2016-08-03T00:21:38.049Z,17.17
2016-08-03T00:22:37.381Z,17.22
2016-08-03T00:23:38.087Z,17.2
2016-08-03T00:24:37.399Z,17.2
2016-08-03T00:25:37.439Z,17.2
2016-08-03T00:26:37.440Z,17.2
2016-08-03T00:27:38.163Z,17.16
2016-08-03T00:29:38.210Z,17.19
2016-08-03T00:30:38.231Z,17.22
2016-08-03T00:31:37.561Z,17.27
2016-08-03T00:32:37.567Z,17.16
2016-08-03T00:33:37.609Z,17.19
2016-08-03T00:34:38.343Z,17.14
2016-08-03T00:35:37.021Z,17.24
2016-08-03T00:36:36.948Z,17.16
2016-08-03T00:37:38.383Z,17.13
2016-08-03T00:38:38.406Z,17.23
2016-08-03T00:39:38.462Z,17.13
2016-08-03T00:40:37.739Z,17.13
2016-08-03T00:41:37.771Z,17.16
2016-08-03T00:42:38.489Z,17.16
2016-08-03T00:44:38.530Z,17.19
2016-08-03T00:45:37.871Z,17.17
2016-08-03T00:46:37.176Z,17.22
2016-08-03T00:47:38.598Z,17.2
2016-08-03T00:48:37.909Z,17.2
2016-08-03T00:49:37.932Z,17.2
2016-08-03T00:50:38.714Z,17.14
2016-08-03T00:51:38.012Z,17.19
2016-08-03T00:52:38.763Z,17.16
2016-08-03T00:53:38.031Z,17.13
2016-08-03T00:54:38.898Z,17.13
2016-08-03T00:55:38.765Z,17.2
2016-08-03T00:56:38.835Z,17.16
2016-08-03T00:57:38.101Z,17.19
2016-08-03T00:59:37.503Z,17.19
2016-08-03T01:00:38.861Z,17.19
2016-08-03T01:01:38.901Z,17.17
2016-08-03T01:02:38.925Z,17.16
2016-08-03T01:03:38.236Z,17.2
2016-08-03T01:04:38.251Z,17.2
2016-08-03T01:05:39.085Z,17.1
2016-08-03T01:06:39.008Z,17.14
2016-08-03T01:07:39.042Z,17.12
2016-08-03T01:08:39.052Z,17.19
2016-08-03T01:09:39.075Z,17.2
2016-08-03T01:10:39.090Z,17.24
2016-08-03T01:11:39.177Z,17.2
2016-08-03T01:12:39.120Z,17.2
2016-08-03T01:13:39.151Z,17.22
2016-08-03T01:14:38.518Z,17.16
2016-08-03T01:15:37.776Z,17.17
2016-08-03T01:16:38.505Z,17.27
2016-08-03T01:17:39.229Z,17.24
2016-08-03T01:18:37.855Z,17.24
2016-08-03T01:19:39.275Z,17.23
2016-08-03T01:20:38.580Z,17.27
2016-08-03T01:21:39.323Z,17.31
2016-08-03T01:22:38.640Z,17.28
2016-08-03T01:23:39.351Z,17.27
2016-08-03T01:24:39.403Z,17.28
2016-08-03T01:25:38.700Z,17.24
2016-08-03T01:26:39.432Z,17.3
2016-08-03T01:27:39.450Z,17.35
2016-08-03T01:28:38.050Z,17.3
2016-08-03T01:29:38.071Z,17.34
2016-08-03T01:30:38.806Z,17.34
2016-08-03T01:31:38.822Z,17.34
2016-08-03T01:32:38.133Z,17.38
2016-08-03T01:33:39.577Z,17.35
2016-08-03T01:34:38.895Z,17.41
2016-08-03T01:35:38.910Z,17.38
2016-08-03T01:36:38.933Z,17.42
2016-08-03T01:37:39.690Z,17.34
2016-08-03T01:38:39.072Z,17.41
2016-08-03T01:39:39.702Z,17.34
2016-08-03T01:40:39.016Z,17.39
2016-08-03T01:41:39.745Z,17.31
2016-08-03T01:42:39.059Z,17.52
2016-08-03T01:43:39.781Z,17.41
2016-08-03T01:44:39.094Z,17.47
2016-08-03T01:45:38.411Z,17.44
2016-08-03T01:46:39.870Z,17.41
2016-08-03T01:47:39.872Z,17.39
2016-08-03T01:48:39.889Z,17.54
2016-08-03T01:49:39.922Z,17.47
2016-08-03T01:50:39.231Z,17.56
2016-08-03T01:51:39.262Z,17.6
2016-08-03T01:52:39.260Z,17.53
2016-08-03T01:53:40.011Z,17.57
2016-08-03T01:54:40.031Z,17.49
2016-08-03T01:55:39.420Z,17.56
2016-08-03T01:56:40.069Z,17.53
2016-08-03T01:57:39.463Z,17.54
2016-08-03T01:58:40.100Z,17.57
2016-08-03T01:59:39.431Z,17.59
2016-08-03T02:00:39.453Z,17.63
2016-08-03T02:01:39.559Z,17.68
2016-08-03T02:02:39.582Z,17.6
2016-08-03T02:03:40.217Z,17.65
2016-08-03T02:04:39.649Z,17.57
2016-08-03T02:05:40.237Z,17.65
2016-08-03T02:06:39.620Z,17.63
2016-08-03T02:07:39.601Z,17.65
2016-08-03T02:08:39.643Z,17.53
2016-08-03T02:09:39.647Z,17.57
2016-08-03T02:10:40.361Z,17.54
2016-08-03T02:11:39.771Z,17.54
2016-08-03T02:12:40.411Z,17.59
2016-08-03T02:13:40.421Z,17.69
2016-08-03T02:14:39.761Z,17.6
2016-08-03T02:15:40.642Z,17.68
2016-08-03T02:16:40.488Z,17.65
2016-08-03T02:17:39.908Z,17.68
2016-08-03T02:18:39.832Z,17.78
2016-08-03T02:19:39.895Z,17.75
2016-08-03T02:20:39.868Z,17.75
2016-08-03T02:21:39.881Z,17.72
2016-08-03T02:22:40.638Z,17.86
2016-08-03T02:23:39.934Z,17.8
2016-08-03T02:24:39.993Z,17.75
2016-08-03T02:25:40.680Z,17.78
2016-08-03T02:26:40.116Z,17.78
2016-08-03T02:27:40.730Z,17.82
2016-08-03T02:28:40.135Z,17.88
2016-08-03T02:29:40.767Z,17.82
2016-08-03T02:30:40.090Z,17.82
2016-08-03T02:31:40.111Z,17.91
2016-08-03T02:32:39.432Z,17.87
2016-08-03T02:33:40.156Z,17.86
2016-08-03T02:34:40.940Z,17.91
2016-08-03T02:35:40.893Z,17.91
2016-08-03T02:36:40.930Z,17.93
2016-08-03T02:37:40.457Z,17.87
2016-08-03T02:38:40.340Z,17.91
2016-08-03T02:39:41.001Z,17.94
2016-08-03T02:40:40.383Z,17.93
2016-08-03T02:41:40.422Z,17.97
2016-08-03T02:42:40.362Z,17.98
2016-08-03T02:43:40.373Z,17.95
2016-08-03T02:44:40.381Z,17.97
2016-08-03T02:45:41.124Z,17.98
2016-08-03T02:46:40.421Z,17.98
2016-08-03T02:47:41.159Z,17.94
2016-08-03T02:48:40.511Z,17.97
2016-08-03T02:49:40.488Z,18.09
2016-08-03T02:50:40.699Z,18.15
2016-08-03T02:51:40.541Z,18.11
2016-08-03T02:52:40.667Z,18.11
2016-08-03T02:53:40.577Z,18.06
2016-08-03T02:54:40.701Z,18.06
2016-08-03T02:55:40.634Z,18.13
2016-08-03T02:56:39.941Z,18.08
2016-08-03T02:57:41.381Z,18.16
2016-08-03T02:58:39.984Z,18.03
2016-08-03T02:59:40.710Z,18.16
2016-08-03T03:00:40.738Z,18.18
2016-08-03T03:01:40.076Z,18.23
2016-08-03T03:02:41.493Z,18.15
2016-08-03T03:03:41.533Z,18.15
2016-08-03T03:04:41.543Z,18.16
2016-08-03T03:05:41.021Z,18.15
2016-08-03T03:06:40.870Z,18.23
2016-08-03T03:07:40.891Z,18.13
2016-08-03T03:08:41.623Z,18.16
2016-08-03T03:09:40.933Z,18.09
2016-08-03T03:10:41.670Z,18.12
2016-08-03T03:11:40.983Z,18.16
2016-08-03T03:12:41.713Z,18.12
2016-08-03T03:13:41.734Z,18.26
2016-08-03T03:14:41.741Z,18.23
2016-08-03T03:15:41.069Z,18.28
2016-08-03T03:16:41.195Z,18.24
2016-08-03T03:17:41.823Z,18.21
2016-08-03T03:18:41.861Z,18.28
2016-08-03T03:19:41.165Z,18.28
2016-08-03T03:20:41.909Z,18.34
2016-08-03T03:21:41.181Z,18.27
2016-08-03T03:22:42.001Z,18.31
2016-08-03T03:23:40.720Z,18.27
2016-08-03T03:24:41.262Z,18.31
2016-08-03T03:25:40.581Z,18.31
2016-08-03T03:26:41.323Z,18.37
2016-08-03T03:27:42.063Z,18.34
2016-08-03T03:28:41.354Z,18.39
2016-08-03T03:29:40.671Z,18.39
2016-08-03T03:30:40.761Z,18.42
2016-08-03T03:31:40.703Z,18.39
2016-08-03T03:32:42.158Z,18.39
2016-08-03T03:33:41.452Z,18.39
2016-08-03T03:34:42.190Z,18.41
2016-08-03T03:35:41.593Z,18.42
2016-08-03T03:36:42.211Z,18.43
2016-08-03T03:37:41.553Z,18.37
2016-08-03T03:38:40.872Z,18.37
2016-08-03T03:39:41.591Z,18.39
2016-08-03T03:40:41.623Z,18.36
2016-08-03T03:41:42.342Z,18.46
2016-08-03T03:42:41.674Z,18.46
2016-08-03T03:43:41.123Z,18.46
2016-08-03T03:44:42.432Z,18.46
2016-08-03T03:45:41.753Z,18.48
2016-08-03T03:46:42.450Z,18.46
2016-08-03T03:47:41.352Z,18.49
2016-08-03T03:48:42.003Z,18.51
2016-08-03T03:49:42.110Z,18.52
2016-08-03T03:50:42.038Z,18.51
2016-08-03T03:51:42.161Z,18.53
2016-08-03T03:52:42.683Z,18.53
2016-08-03T03:53:42.170Z,18.53
2016-08-03T03:54:41.267Z,18.53
2016-08-03T03:55:42.838Z,18.57
2016-08-03T03:56:42.728Z,18.6
2016-08-03T03:57:42.080Z,18.6
2016-08-03T03:58:42.112Z,18.6
2016-08-03T03:59:42.721Z,18.58
2016-08-03T04:00:41.363Z,18.61
2016-08-03T04:01:42.079Z,18.53
2016-08-03T04:02:42.802Z,18.67
2016-08-03T04:03:42.842Z,18.61
2016-08-03T04:04:41.483Z,18.6
2016-08-03T04:05:42.923Z,18.63
2016-08-03T04:06:42.901Z,18.66
2016-08-03T04:07:42.929Z,18.67
2016-08-03T04:08:42.236Z,18.67
2016-08-03T04:09:42.980Z,18.67
2016-08-03T04:10:42.991Z,18.74
2016-08-03T04:11:41.634Z,18.74
2016-08-03T04:12:42.330Z,18.76
2016-08-03T04:13:42.351Z,18.71
2016-08-03T04:14:43.713Z,18.78
2016-08-03T04:15:42.481Z,18.74
2016-08-03T04:16:42.412Z,18.79
2016-08-03T04:17:43.133Z,18.82
2016-08-03T04:18:42.463Z,18.82
2016-08-03T04:19:42.473Z,18.82
2016-08-03T04:20:42.490Z,18.78
2016-08-03T04:21:42.521Z,18.76
2016-08-03T04:22:43.249Z,18.71
2016-08-03T04:23:41.862Z,18.79
2016-08-03T04:24:43.284Z,18.79
2016-08-03T04:25:42.611Z,18.92
2016-08-03T04:26:43.375Z,18.86
2016-08-03T04:27:42.647Z,18.89
2016-08-03T04:28:42.680Z,18.85
2016-08-03T04:29:43.922Z,18.97
2016-08-03T04:30:42.050Z,18.86
2016-08-03T04:31:43.453Z,18.89
2016-08-03T04:32:43.578Z,18.89
2016-08-03T04:33:42.789Z,18.97
2016-08-03T04:34:42.819Z,18.85
2016-08-03T04:35:42.860Z,18.85
2016-08-03T04:36:42.850Z,18.94
2016-08-03T04:37:43.571Z,18.97
2016-08-03T04:38:43.612Z,18.86
2016-08-03T04:39:43.633Z,19
2016-08-03T04:40:43.668Z,19.07
2016-08-03T04:41:42.982Z,19
2016-08-03T04:42:42.981Z,19.04
2016-08-03T04:43:43.012Z,18.94
2016-08-03T04:45:43.059Z,19.01
2016-08-03T04:46:43.789Z,18.98
2016-08-03T04:47:43.810Z,18.98
2016-08-03T04:48:43.857Z,19.01
2016-08-03T04:49:43.139Z,19.01
2016-08-03T04:50:42.458Z,19.05
2016-08-03T04:51:43.895Z,19.09
2016-08-03T04:52:43.220Z,19.04
2016-08-03T04:53:42.534Z,19.08
2016-08-03T04:54:43.258Z,19.15
2016-08-03T04:55:43.288Z,19.12
2016-08-03T04:56:43.305Z,19.17
2016-08-03T04:57:43.331Z,19.09
2016-08-03T04:58:43.363Z,19.07
2016-08-03T04:59:43.450Z,19.09
2016-08-03T05:00:43.388Z,19.15
2016-08-03T05:01:43.493Z,19.12
2016-08-03T05:02:44.148Z,19.07
2016-08-03T05:03:43.504Z,19.16
2016-08-03T05:04:44.186Z,19.19
2016-08-03T05:05:43.514Z,19.12
2016-08-03T05:06:43.533Z,19.11
2016-08-03T05:07:43.548Z,19.19
2016-08-03T05:08:44.283Z,19.24
2016-08-03T05:09:44.313Z,19.23
2016-08-03T05:10:42.922Z,19.34
2016-08-03T05:11:44.341Z,19.34
2016-08-03T05:12:44.381Z,19.37
2016-08-03T05:13:44.382Z,19.3
2016-08-03T05:14:43.004Z,19.38
2016-08-03T05:15:43.814Z,19.42
2016-08-03T05:16:44.470Z,19.45
2016-08-03T05:17:43.775Z,19.44
2016-08-03T05:18:44.520Z,19.45
2016-08-03T05:19:44.543Z,19.45
2016-08-03T05:20:43.844Z,19.49
2016-08-03T05:21:44.568Z,19.45
2016-08-03T05:22:43.889Z,19.47
2016-08-03T05:23:43.913Z,19.48
2016-08-03T05:24:44.632Z,19.53
2016-08-03T05:25:44.743Z,19.59
2016-08-03T05:26:43.972Z,19.6
2016-08-03T05:27:43.992Z,19.59
2016-08-03T05:28:43.311Z,19.52
2016-08-03T05:29:44.741Z,19.57
2016-08-03T05:30:44.068Z,19.6
2016-08-03T05:31:44.083Z,19.59
2016-08-03T05:32:44.193Z,19.53
2016-08-03T05:33:44.852Z,19.56
2016-08-03T05:34:43.493Z,19.47
2016-08-03T05:35:44.180Z,19.48
2016-08-03T05:36:44.221Z,19.45
2016-08-03T05:37:44.210Z,19.41
2016-08-03T05:38:44.253Z,19.45
2016-08-03T05:39:44.973Z,19.44
2016-08-03T05:40:45.022Z,19.52
2016-08-03T05:41:44.313Z,19.48
2016-08-03T05:42:44.350Z,19.44
2016-08-03T05:43:44.362Z,19.48
2016-08-03T05:44:44.392Z,19.45
2016-08-03T05:45:44.413Z,19.41
2016-08-03T05:46:44.434Z,19.42
2016-08-03T05:47:45.160Z,19.42
2016-08-03T05:48:43.767Z,19.45
2016-08-03T05:49:45.300Z,19.44
2016-08-03T05:50:44.520Z,19.48
2016-08-03T05:51:44.541Z,19.56
2016-08-03T05:52:44.559Z,19.57
2016-08-03T05:53:44.592Z,19.64
2016-08-03T05:54:45.322Z,19.63
2016-08-03T05:55:44.639Z,19.66
2016-08-03T05:56:45.363Z,19.66
2016-08-03T05:57:45.373Z,19.64
2016-08-03T05:58:44.704Z,19.79
2016-08-03T05:59:45.451Z,19.74
2016-08-03T06:00:44.736Z,19.79
2016-08-03T06:01:44.762Z,19.75
2016-08-03T06:02:44.783Z,19.89
2016-08-03T06:03:45.522Z,19.87
2016-08-03T06:04:45.531Z,19.93
2016-08-03T06:05:44.863Z,19.92
2016-08-03T06:06:44.174Z,19.96
2016-08-03T06:07:45.602Z,20.11
2016-08-03T06:08:45.649Z,20.19
2016-08-03T06:09:44.955Z,20.3
2016-08-03T06:10:45.700Z,20.26
2016-08-03T06:11:45.734Z,20.39
2016-08-03T06:12:45.027Z,20.5
2016-08-03T06:13:45.813Z,20.53
2016-08-03T06:14:45.054Z,20.6
2016-08-03T06:15:45.826Z,20.53
2016-08-03T06:16:45.825Z,20.49
2016-08-03T06:17:45.154Z,20.42
2016-08-03T06:18:45.161Z,20.42
2016-08-03T06:19:44.462Z,20.29
2016-08-03T06:20:45.911Z,20.34
2016-08-03T06:21:45.942Z,20.3
2016-08-03T06:22:45.963Z,20.27
2016-08-03T06:23:45.983Z,20.17
2016-08-03T06:24:45.323Z,20.22
2016-08-03T06:25:45.327Z,20.18
2016-08-03T06:26:45.356Z,20.19
2016-08-03T06:27:46.059Z,20.26
2016-08-03T06:28:46.090Z,20.27
2016-08-03T06:29:46.111Z,20.17
2016-08-03T06:30:45.452Z,20.17
2016-08-03T06:31:46.171Z,20.18
2016-08-03T06:32:45.511Z,20.08
2016-08-03T06:33:46.212Z,20.15
2016-08-03T06:34:46.231Z,20.1
2016-08-03T06:35:45.601Z,20.12
2016-08-03T06:36:46.283Z,20.04
2016-08-03T06:37:46.373Z,19.9
2016-08-03T06:38:45.627Z,20.1
2016-08-03T06:39:45.647Z,20.07
2016-08-03T06:40:45.668Z,20.1
2016-08-03T06:41:46.411Z,20.07
2016-08-03T06:42:45.723Z,19.94
2016-08-03T06:43:46.443Z,19.97
2016-08-03T06:44:46.475Z,19.92
2016-08-03T06:45:45.791Z,19.96
2016-08-03T06:46:46.550Z,19.93
2016-08-03T06:47:46.522Z,19.93
2016-08-03T06:48:45.863Z,20.02
2016-08-03T06:49:46.581Z,20.12
2016-08-03T06:50:46.609Z,20.14
2016-08-03T06:51:45.923Z,20.19
2016-08-03T06:52:46.702Z,20.3
2016-08-03T06:53:45.393Z,20.53
2016-08-03T06:54:46.707Z,20.58
2016-08-03T06:55:46.122Z,20.71
2016-08-03T06:56:45.322Z,20.8
2016-08-03T06:57:46.102Z,20.86
2016-08-03T06:58:46.784Z,20.98
2016-08-03T06:59:46.893Z,20.89
2016-08-03T07:00:46.133Z,20.89
2016-08-03T07:01:46.151Z,20.9
2016-08-03T07:02:45.462Z,20.89
2016-08-03T07:03:46.191Z,21.07
2016-08-03T07:04:46.923Z,21.07
2016-08-03T07:05:46.242Z,21.05
2016-08-03T07:06:46.974Z,21.13
2016-08-03T07:07:46.297Z,21.05
2016-08-03T07:08:46.330Z,21.15
2016-08-03T07:09:46.403Z,21.05
2016-08-03T07:10:46.373Z,21.07
2016-08-03T07:11:45.683Z,21.1
2016-08-03T07:12:46.412Z,21.05
2016-08-03T07:13:46.456Z,21.04
2016-08-03T07:14:47.173Z,21.14
2016-08-03T07:15:47.207Z,21.19
2016-08-03T07:16:46.513Z,21.29
2016-08-03T07:17:45.841Z,21.38
2016-08-03T07:18:46.560Z,21.59
2016-08-03T07:19:45.881Z,21.66
2016-08-03T07:20:47.313Z,21.68
2016-08-03T07:21:47.341Z,21.8
2016-08-03T07:22:47.384Z,21.8
2016-08-03T07:23:46.003Z,21.94
2016-08-03T07:24:47.402Z,22.06
2016-08-03T07:25:46.731Z,22.31
2016-08-03T07:26:47.461Z,22.37
2016-08-03T07:27:46.782Z,22.58
2016-08-03T07:28:47.511Z,22.71
2016-08-03T07:29:46.832Z,22.83
2016-08-03T07:30:47.571Z,22.78
2016-08-03T07:31:47.575Z,22.84
2016-08-03T07:32:47.645Z,22.89
2016-08-03T07:33:46.931Z,22.81
2016-08-03T07:34:46.963Z,22.76
2016-08-03T07:35:47.693Z,22.8
2016-08-03T07:36:47.715Z,22.73
2016-08-03T07:37:47.025Z,22.76
2016-08-03T07:38:47.883Z,22.7
2016-08-03T07:39:47.217Z,22.65
2016-08-03T07:40:47.834Z,22.67
2016-08-03T07:41:47.846Z,22.65
2016-08-03T07:42:47.870Z,22.67
2016-08-03T07:43:48.010Z,22.67
2016-08-03T07:44:46.489Z,22.65
2016-08-03T07:45:47.220Z,22.7
2016-08-03T07:46:47.942Z,22.83
2016-08-03T07:47:48.042Z,22.68
2016-08-03T07:48:48.014Z,22.81
2016-08-03T07:49:48.113Z,22.76
2016-08-03T07:50:48.117Z,22.88
2016-08-03T07:51:48.073Z,22.83
2016-08-03T07:52:46.689Z,22.77
2016-08-03T07:53:48.122Z,22.8
2016-08-03T07:54:47.521Z,22.8
2016-08-03T07:55:48.386Z,22.83
2016-08-03T07:56:47.503Z,22.88
2016-08-03T07:57:48.378Z,22.91
2016-08-03T07:58:47.552Z,22.93
2016-08-03T07:59:48.375Z,23.07
2016-08-03T08:00:48.465Z,23.14
2016-08-03T08:01:48.394Z,23.28
2016-08-03T08:02:47.653Z,23.25
2016-08-03T08:03:48.394Z,23.39
2016-08-03T08:04:48.394Z,23.36
2016-08-03T08:05:48.490Z,23.28
2016-08-03T08:06:47.745Z,23.36
2016-08-03T08:07:47.774Z,23.36
2016-08-03T08:08:48.501Z,23.33
2016-08-03T08:09:48.565Z,23.17
2016-08-03T08:10:47.862Z,23.11
2016-08-03T08:11:47.956Z,22.96
2016-08-03T08:12:47.916Z,22.84
2016-08-03T08:13:48.621Z,22.67
2016-08-03T08:14:48.081Z,22.59
2016-08-03T08:15:47.272Z,22.49
2016-08-03T08:16:48.786Z,22.3
2016-08-03T08:17:48.032Z,22.14
2016-08-03T08:18:48.763Z,22.03
2016-08-03T08:19:48.808Z,22
2016-08-03T08:20:48.114Z,21.92
2016-08-03T08:21:48.156Z,21.89
2016-08-03T08:22:48.163Z,21.89
2016-08-03T08:23:48.271Z,21.84
2016-08-03T08:24:47.503Z,21.97
2016-08-03T08:25:49.053Z,22
2016-08-03T08:26:48.272Z,22.07
2016-08-03T08:27:49.032Z,22.15
2016-08-03T08:28:48.313Z,22.16
2016-08-03T08:29:49.152Z,22.21
2016-08-03T08:30:48.781Z,22.15
2016-08-03T08:31:49.090Z,22.18
2016-08-03T08:32:48.600Z,22.31
2016-08-03T08:33:49.193Z,22.12
2016-08-03T08:34:49.162Z,22.21
2016-08-03T08:35:49.193Z,22.12
2016-08-03T08:36:49.211Z,22.14
2016-08-03T08:37:49.249Z,22.28
2016-08-03T08:38:49.298Z,22.3
2016-08-03T08:39:48.603Z,22.38
2016-08-03T08:40:48.663Z,22.43
2016-08-03T08:41:48.634Z,22.4
2016-08-03T08:42:49.351Z,22.53
2016-08-03T08:43:49.390Z,22.61
2016-08-03T08:44:49.413Z,22.73
2016-08-03T08:46:49.460Z,22.7
2016-08-03T08:47:48.787Z,22.78
2016-08-03T08:48:49.521Z,22.84
2016-08-03T08:49:49.540Z,22.92
2016-08-03T08:50:48.869Z,23.02
2016-08-03T08:51:48.877Z,22.96
2016-08-03T08:52:49.611Z,23.02
2016-08-03T08:53:49.642Z,23.1
2016-08-03T08:54:49.672Z,23.13
2016-08-03T08:55:48.987Z,23.29
2016-08-03T08:56:49.739Z,23.25
2016-08-03T08:57:49.049Z,23.26
2016-08-03T08:58:49.762Z,23.2
2016-08-03T08:59:49.135Z,23.26
2016-08-03T09:00:49.888Z,23.29
2016-08-03T09:01:49.841Z,23.17
2016-08-03T09:02:49.260Z,23.13
2016-08-03T09:03:49.186Z,23.18
2016-08-03T09:04:49.932Z,23.36
2016-08-03T09:05:49.945Z,23.32
2016-08-03T09:06:50.027Z,23.36
2016-08-03T09:07:49.337Z,23.4
2016-08-03T09:08:50.043Z,23.47
2016-08-03T09:09:50.033Z,23.52
2016-08-03T09:10:50.071Z,23.59
2016-08-03T09:11:50.102Z,23.69
2016-08-03T09:12:49.409Z,23.81
2016-08-03T09:13:50.213Z,23.95
2016-08-03T09:14:49.568Z,23.96
2016-08-03T09:15:50.213Z,24.03
2016-08-03T09:16:50.222Z,23.96
2016-08-03T09:17:50.270Z,24.19
2016-08-03T09:18:49.587Z,24.28
2016-08-03T09:19:49.602Z,24.43
2016-08-03T09:20:50.368Z,24.63
2016-08-03T09:21:50.341Z,24.78
2016-08-03T09:22:49.673Z,25
2016-08-03T09:23:50.412Z,25.16
2016-08-03T09:24:49.823Z,25.37
2016-08-03T09:25:49.741Z,25.58
2016-08-03T09:26:49.781Z,25.63
2016-08-03T09:27:49.821Z,25.59
2016-08-03T09:28:49.842Z,25.44
2016-08-03T09:29:50.556Z,25.36
2016-08-03T09:30:49.884Z,25.16
2016-08-03T09:31:50.640Z,25.14
2016-08-03T09:32:50.659Z,25
2016-08-03T09:33:50.688Z,24.89
2016-08-03T09:34:49.996Z,24.58
2016-08-03T09:35:49.392Z,24.41
2016-08-03T09:36:50.034Z,24.47
2016-08-03T09:37:50.072Z,24.55
2016-08-03T09:38:50.088Z,24.55
2016-08-03T09:39:50.834Z,24.68
2016-08-03T09:40:50.878Z,24.74
2016-08-03T09:41:50.885Z,24.79
2016-08-03T09:42:50.902Z,24.92
2016-08-03T09:43:50.938Z,25.11
2016-08-03T09:44:50.371Z,25.39
2016-08-03T09:45:51.005Z,25.62
2016-08-03T09:46:51.023Z,25.58
2016-08-03T09:47:50.331Z,25.48
2016-08-03T09:48:50.371Z,25.44
2016-08-03T09:49:50.406Z,25.37
2016-08-03T09:50:51.164Z,25.3
2016-08-03T09:51:50.485Z,25.15
2016-08-03T09:52:50.484Z,24.93
2016-08-03T09:53:51.242Z,24.69
2016-08-03T09:54:50.764Z,24.66
2016-08-03T09:55:50.671Z,24.48
2016-08-03T09:56:50.826Z,24.43
2016-08-03T09:57:50.621Z,24.32
2016-08-03T09:58:51.345Z,24.28
2016-08-03T09:59:51.362Z,24.34
2016-08-03T10:00:50.674Z,24.36
2016-08-03T10:01:50.710Z,24.4
2016-08-03T10:02:50.761Z,24.47
2016-08-03T10:03:50.754Z,24.48
2016-08-03T10:04:51.509Z,24.43
2016-08-03T10:05:51.540Z,24.36
2016-08-03T10:06:50.885Z,24.37
2016-08-03T10:07:50.896Z,24.47
2016-08-03T10:08:50.901Z,24.47
2016-08-03T10:09:50.218Z,24.56
2016-08-03T10:10:50.964Z,24.53
2016-08-03T10:11:51.715Z,24.55
2016-08-03T10:12:51.011Z,24.56
2016-08-03T10:13:51.032Z,24.61
2016-08-03T10:14:51.061Z,24.75
2016-08-03T10:15:51.434Z,24.79
2016-08-03T10:16:51.919Z,25.04
2016-08-03T10:17:51.217Z,25.25
2016-08-03T10:18:51.983Z,25.24
2016-08-03T10:19:51.314Z,25.34
2016-08-03T10:20:51.984Z,25.3
2016-08-03T10:21:51.300Z,25.26
2016-08-03T10:22:52.019Z,25.11
2016-08-03T10:23:52.558Z,24.92
2016-08-03T10:24:51.386Z,24.79
2016-08-03T10:25:52.051Z,24.63
2016-08-03T10:26:50.681Z,24.56
2016-08-03T10:27:51.420Z,24.44
2016-08-03T10:28:52.187Z,24.21
2016-08-03T10:29:52.193Z,24.24
2016-08-03T10:30:52.292Z,24.22
2016-08-03T10:31:51.514Z,24.19
2016-08-03T10:32:51.551Z,24.28
2016-08-03T10:33:51.592Z,24.18
2016-08-03T10:34:51.605Z,24.14
2016-08-03T10:35:52.320Z,24.03
2016-08-03T10:36:52.008Z,24
2016-08-03T10:37:51.731Z,23.84
2016-08-03T10:38:52.431Z,23.62
2016-08-03T10:39:51.723Z,23.49
2016-08-03T10:40:52.478Z,23.32
2016-08-03T10:41:52.490Z,23.08
2016-08-03T10:42:51.806Z,23.08
2016-08-03T10:43:52.531Z,22.91
2016-08-03T10:44:52.557Z,22.78
2016-08-03T10:45:52.603Z,22.77
2016-08-03T10:46:52.635Z,22.78
2016-08-03T10:47:52.650Z,22.76
2016-08-03T10:48:51.464Z,22.74
2016-08-03T10:49:52.707Z,22.74
2016-08-03T10:50:52.111Z,22.74
2016-08-03T10:51:52.769Z,22.84
2016-08-03T10:52:51.369Z,23.08
2016-08-03T10:53:52.122Z,23.11
2016-08-03T10:54:51.734Z,23.4
2016-08-03T10:55:52.853Z,23.69
2016-08-03T10:56:52.161Z,24.06
2016-08-03T10:57:52.923Z,24.31
2016-08-03T10:58:52.282Z,24.58
2016-08-03T10:59:52.254Z,24.71
2016-08-03T11:00:52.271Z,24.77
2016-08-03T11:01:53.012Z,24.89
2016-08-03T11:02:53.027Z,24.89
2016-08-03T11:03:53.060Z,24.79
2016-08-03T11:04:52.382Z,24.93
2016-08-03T11:05:52.391Z,24.89
2016-08-03T11:06:52.420Z,25.03
2016-08-03T11:07:53.156Z,25.24
2016-08-03T11:08:53.194Z,25.29
2016-08-03T11:09:52.521Z,25.43
2016-08-03T11:10:53.411Z,25.4
2016-08-03T11:11:53.285Z,25.48
2016-08-03T11:12:53.283Z,25.3
2016-08-03T11:13:53.333Z,25.21
2016-08-03T11:14:52.646Z,25.15
2016-08-03T11:15:52.759Z,25.14
2016-08-03T11:16:53.409Z,25.03
2016-08-03T11:17:52.022Z,25.12
2016-08-03T11:18:53.457Z,25.3
2016-08-03T11:19:52.083Z,25.48
2016-08-03T11:20:52.810Z,25.52
2016-08-03T11:21:53.546Z,25.58
2016-08-03T11:22:53.553Z,25.52
2016-08-03T11:23:53.581Z,25.48
2016-08-03T11:24:53.632Z,25.44
2016-08-03T11:25:52.920Z,25.25
2016-08-03T11:26:52.260Z,25.04
2016-08-03T11:27:53.709Z,24.71
2016-08-03T11:28:53.010Z,24.5
2016-08-03T11:29:53.747Z,24.4
2016-08-03T11:30:53.773Z,24.24
2016-08-03T11:31:53.107Z,24.22
2016-08-03T11:32:53.139Z,24.01
2016-08-03T11:33:53.850Z,23.96
2016-08-03T11:34:53.182Z,23.99
2016-08-03T11:35:53.909Z,23.88
2016-08-03T11:36:53.232Z,23.96
2016-08-03T11:37:53.256Z,23.91
2016-08-03T11:38:53.983Z,23.91
2016-08-03T11:39:53.412Z,24.18
2016-08-03T11:40:54.040Z,24.37
2016-08-03T11:41:52.663Z,24.43
2016-08-03T11:42:53.383Z,24.51
2016-08-03T11:43:54.129Z,24.59
2016-08-03T11:44:54.150Z,24.51
2016-08-03T11:45:52.760Z,24.53
2016-08-03T11:46:53.493Z,24.32
2016-08-03T11:47:54.223Z,24.14
2016-08-03T11:48:52.832Z,24.19
2016-08-03T11:49:52.871Z,24
2016-08-03T11:50:52.902Z,24
2016-08-03T11:51:54.317Z,23.96
2016-08-03T11:52:54.362Z,23.89
2016-08-03T11:53:53.751Z,23.81
2016-08-03T11:54:54.461Z,23.85
2016-08-03T11:55:54.438Z,23.92
2016-08-03T11:56:54.458Z,24.06
2016-08-03T11:57:54.481Z,23.89
2016-08-03T11:58:54.512Z,23.91
2016-08-03T11:59:54.733Z,23.88
2016-08-03T12:00:53.870Z,23.95
2016-08-03T12:01:54.606Z,23.85
2016-08-03T12:02:53.200Z,23.85
2016-08-03T12:03:54.680Z,23.82
2016-08-03T12:04:53.973Z,23.88
2016-08-03T12:05:53.997Z,23.82
2016-08-03T12:06:53.312Z,23.81
2016-08-03T12:07:54.761Z,23.84
2016-08-03T12:08:53.372Z,23.94
2016-08-03T12:09:54.094Z,24.03
2016-08-03T12:10:54.175Z,24.13
2016-08-03T12:11:54.143Z,24.34
2016-08-03T12:12:53.541Z,24.47
2016-08-03T12:13:54.902Z,24.74
2016-08-03T12:14:54.995Z,25.12
2016-08-03T12:15:54.250Z,25.3
2016-08-03T12:16:54.351Z,25.62
2016-08-03T12:17:54.319Z,25.77
2016-08-03T12:18:53.632Z,25.88
2016-08-03T12:19:55.060Z,26.06
2016-08-03T12:20:55.090Z,26.03
2016-08-03T12:21:54.401Z,26.11
2016-08-03T12:22:55.141Z,25.91
2016-08-03T12:23:54.482Z,25.92
2016-08-03T12:24:55.212Z,25.61
2016-08-03T12:25:55.441Z,25.4
2016-08-03T12:26:55.247Z,25.21
2016-08-03T12:27:54.581Z,25.04
2016-08-03T12:28:54.779Z,24.94
2016-08-03T12:29:55.477Z,24.71
2016-08-03T12:30:54.100Z,24.47
2016-08-03T12:31:55.493Z,24.36
2016-08-03T12:32:54.820Z,24.19
2016-08-03T12:33:54.787Z,24.32
2016-08-03T12:34:55.680Z,24.36
2016-08-03T12:35:54.847Z,24.43
2016-08-03T12:36:55.681Z,24.74
2016-08-03T12:37:55.541Z,24.94
2016-08-03T12:38:55.674Z,25.14
2016-08-03T12:39:54.193Z,25.26
2016-08-03T12:40:55.065Z,25.37
2016-08-03T12:41:55.667Z,25.4
2016-08-03T12:42:55.742Z,25.51
2016-08-03T12:43:55.712Z,25.39
2016-08-03T12:44:55.736Z,25.4
2016-08-03T12:45:55.073Z,25.21
2016-08-03T12:46:55.780Z,25.15
2016-08-03T12:47:55.112Z,25
2016-08-03T12:48:55.864Z,24.82
2016-08-03T12:49:55.170Z,24.65
2016-08-03T12:50:55.243Z,24.26
2016-08-03T12:51:55.217Z,24.18
2016-08-03T12:52:54.551Z,24.03
2016-08-03T12:53:55.294Z,24.04
2016-08-03T12:54:55.310Z,23.88
2016-08-03T12:55:56.034Z,23.76
2016-08-03T12:56:55.501Z,23.79
2016-08-03T12:57:55.382Z,23.64
2016-08-03T12:58:55.410Z,23.63
2016-08-03T12:59:55.446Z,23.56
2016-08-03T13:00:55.463Z,23.59
2016-08-03T13:01:56.202Z,23.66